sensor_id;sensor_type;location;lat;lon;timestamp;pressure;altitude;pressure_sealevel;temperature;humidity
53340;BME280;46212;50.258;19.062;2023-07-24T00:01:48;97869.06;;;21.83;54.28
53340;BME280;46212;50.258;19.062;2023-07-24T00:04:13;97877.13;;;21.99;53.73
53340;BME280;46212;50.258;19.062;2023-07-24T00:06:39;97873.34;;;21.97;53.70
53340;BME280;46212;50.258;19.062;2023-07-24T00:09:04;97873.00;;;22.00;54.02
53340;BME280;46212;50.258;19.062;2023-07-24T00:11:29;97882.31;;;21.95;53.79
53340;BME280;46212;50.258;19.062;2023-07-24T00:13:55;97875.00;;;21.92;54.38
53340;BME280;46212;50.258;19.062;2023-07-24T00:16:20;97893.91;;;21.92;54.32
53340;BME280;46212;50.258;19.062;2023-07-24T00:18:46;97906.94;;;22.02;54.15
53340;BME280;46212;50.258;19.062;2023-07-24T00:21:11;97924.00;;;22.04;53.71
53340;BME280;46212;50.258;19.062;2023-07-24T00:23:38;97922.69;;;22.26;53.14
53340;BME280;46212;50.258;19.062;2023-07-24T00:26:04;97917.41;;;22.22;53.28
53340;BME280;46212;50.258;19.062;2023-07-24T00:28:29;97919.63;;;22.16;53.39
53340;BME280;46212;50.258;19.062;2023-07-24T00:30:55;97912.06;;;22.11;53.68
53340;BME280;46212;50.258;19.062;2023-07-24T00:33:21;97913.84;;;22.01;54.33
53340;BME280;46212;50.258;19.062;2023-07-24T00:35:47;97915.03;;;22.06;54.85
53340;BME280;46212;50.258;19.062;2023-07-24T00:38:12;97916.63;;;21.94;55.02
53340;BME280;46212;50.258;19.062;2023-07-24T00:40:38;97908.56;;;21.98;55.47
53340;BME280;46212;50.258;19.062;2023-07-24T00:43:03;97910.84;;;21.99;56.02
53340;BME280;46212;50.258;19.062;2023-07-24T00:45:29;97908.94;;;21.94;55.84
53340;BME280;46212;50.258;19.062;2023-07-24T00:47:54;97911.66;;;21.87;56.49
53340;BME280;46212;50.258;19.062;2023-07-24T00:50:20;97902.28;;;21.84;56.93
53340;BME280;46212;50.258;19.062;2023-07-24T00:52:46;97903.97;;;21.87;57.26
53340;BME280;46212;50.258;19.062;2023-07-24T00:55:13;97890.28;;;21.84;57.55
53340;BME280;46212;50.258;19.062;2023-07-24T00:57:39;97897.94;;;21.83;57.90
53340;BME280;46212;50.258;19.062;2023-07-24T01:00:06;97904.53;;;21.86;57.73
53340;BME280;46212;50.258;19.062;2023-07-24T01:02:32;97895.19;;;21.70;58.48
53340;BME280;46212;50.258;19.062;2023-07-24T01:04:57;97892.97;;;21.68;58.61
53340;BME280;46212;50.258;19.062;2023-07-24T01:07:23;97883.44;;;21.71;58.68
53340;BME280;46212;50.258;19.062;2023-07-24T01:09:48;97889.25;;;21.73;59.07
53340;BME280;46212;50.258;19.062;2023-07-24T01:14:56;97889.66;;;21.78;59.68
53340;BME280;46212;50.258;19.062;2023-07-24T01:17:24;97890.97;;;21.77;59.65
53340;BME280;46212;50.258;19.062;2023-07-24T01:19:55;97882.81;;;21.65;60.11
53340;BME280;46212;50.258;19.062;2023-07-24T01:27:45;97901.25;;;21.74;60.10
53340;BME280;46212;50.258;19.062;2023-07-24T01:30:11;97892.63;;;21.72;60.42
53340;BME280;46212;50.258;19.062;2023-07-24T01:32:37;97896.88;;;21.65;60.83
53340;BME280;46212;50.258;19.062;2023-07-24T01:35:03;97895.88;;;21.63;61.08
53340;BME280;46212;50.258;19.062;2023-07-24T01:37:30;97890.41;;;21.57;60.97
53340;BME280;46212;50.258;19.062;2023-07-24T01:39:56;97888.50;;;21.52;61.52
53340;BME280;46212;50.258;19.062;2023-07-24T01:42:23;97886.03;;;21.49;61.73
53340;BME280;46212;50.258;19.062;2023-07-24T01:44:52;97888.06;;;21.48;62.13
53340;BME280;46212;50.258;19.062;2023-07-24T01:47:17;97889.59;;;21.49;62.02
53340;BME280;46212;50.258;19.062;2023-07-24T01:49:43;97884.50;;;21.48;62.21
53340;BME280;46212;50.258;19.062;2023-07-24T01:52:08;97885.84;;;21.47;62.68
53340;BME280;46212;50.258;19.062;2023-07-24T01:54:33;97881.66;;;21.40;62.41
53340;BME280;46212;50.258;19.062;2023-07-24T01:56:59;97875.19;;;21.32;62.79
53340;BME280;46212;50.258;19.062;2023-07-24T01:59:24;97875.28;;;21.40;63.07
53340;BME280;46212;50.258;19.062;2023-07-24T02:01:50;97879.69;;;21.35;62.83
53340;BME280;46212;50.258;19.062;2023-07-24T02:04:15;97871.28;;;21.35;63.10
53340;BME280;46212;50.258;19.062;2023-07-24T02:06:40;97863.06;;;21.37;63.13
53340;BME280;46212;50.258;19.062;2023-07-24T02:09:06;97853.19;;;21.23;63.29
53340;BME280;46212;50.258;19.062;2023-07-24T02:11:31;97853.00;;;21.21;63.56
53340;BME280;46212;50.258;19.062;2023-07-24T02:13:57;97851.28;;;21.18;64.17
53340;BME280;46212;50.258;19.062;2023-07-24T02:16:22;97852.25;;;21.07;64.29
53340;BME280;46212;50.258;19.062;2023-07-24T02:18:47;97850.66;;;20.99;64.76
53340;BME280;46212;50.258;19.062;2023-07-24T02:21:13;97852.00;;;20.85;65.80
53340;BME280;46212;50.258;19.062;2023-07-24T02:23:38;97848.34;;;20.77;65.66
53340;BME280;46212;50.258;19.062;2023-07-24T02:26:03;97851.50;;;20.73;65.93
53340;BME280;46212;50.258;19.062;2023-07-24T02:28:29;97853.44;;;20.65;66.52
53340;BME280;46212;50.258;19.062;2023-07-24T02:30:54;97851.84;;;20.56;66.57
53340;BME280;46212;50.258;19.062;2023-07-24T02:33:22;97849.28;;;20.45;66.87
53340;BME280;46212;50.258;19.062;2023-07-24T02:35:49;97850.03;;;20.33;67.40
53340;BME280;46212;50.258;19.062;2023-07-24T02:38:16;97839.97;;;20.24;68.88
53340;BME280;46212;50.258;19.062;2023-07-24T02:40:41;97847.53;;;20.03;70.22
53340;BME280;46212;50.258;19.062;2023-07-24T02:43:07;97839.00;;;19.95;70.28
53340;BME280;46212;50.258;19.062;2023-07-24T02:45:37;97846.13;;;19.96;69.85
53340;BME280;46212;50.258;19.062;2023-07-24T02:48:02;97844.72;;;19.90;70.68
53340;BME280;46212;50.258;19.062;2023-07-24T02:50:28;97846.41;;;19.80;70.78
53340;BME280;46212;50.258;19.062;2023-07-24T02:52:54;97851.69;;;19.70;71.15
53340;BME280;46212;50.258;19.062;2023-07-24T02:55:19;97857.91;;;19.63;71.57
53340;BME280;46212;50.258;19.062;2023-07-24T02:57:45;97836.91;;;19.56;72.34
53340;BME280;46212;50.258;19.062;2023-07-24T03:00:11;97843.69;;;19.61;73.27
53340;BME280;46212;50.258;19.062;2023-07-24T03:02:37;97842.41;;;19.62;73.12
53340;BME280;46212;50.258;19.062;2023-07-24T03:05:03;97838.19;;;19.55;73.07
53340;BME280;46212;50.258;19.062;2023-07-24T03:07:29;97839.25;;;19.52;74.24
53340;BME280;46212;50.258;19.062;2023-07-24T03:09:54;97842.28;;;19.54;74.34
53340;BME280;46212;50.258;19.062;2023-07-24T03:12:19;97837.75;;;19.51;74.77
53340;BME280;46212;50.258;19.062;2023-07-24T03:14:45;97838.28;;;19.50;75.26
53340;BME280;46212;50.258;19.062;2023-07-24T03:17:10;97832.81;;;19.57;75.27
53340;BME280;46212;50.258;19.062;2023-07-24T03:19:36;97844.91;;;19.66;75.33
53340;BME280;46212;50.258;19.062;2023-07-24T03:22:01;97851.16;;;19.72;75.46
53340;BME280;46212;50.258;19.062;2023-07-24T03:24:27;97851.06;;;19.77;74.93
53340;BME280;46212;50.258;19.062;2023-07-24T03:26:53;97851.81;;;19.78;75.62
53340;BME280;46212;50.258;19.062;2023-07-24T03:29:18;97863.47;;;19.82;75.42
53340;BME280;46212;50.258;19.062;2023-07-24T03:31:43;97859.00;;;19.73;76.17
53340;BME280;46212;50.258;19.062;2023-07-24T03:34:09;97858.25;;;19.73;76.44
53340;BME280;46212;50.258;19.062;2023-07-24T03:36:34;97852.75;;;19.67;76.96
53340;BME280;46212;50.258;19.062;2023-07-24T03:39:01;97848.56;;;19.74;77.21
53340;BME280;46212;50.258;19.062;2023-07-24T03:41:27;97849.00;;;19.78;77.37
53340;BME280;46212;50.258;19.062;2023-07-24T03:43:53;97853.44;;;19.86;77.01
53340;BME280;46212;50.258;19.062;2023-07-24T03:46:18;97853.63;;;19.88;77.08
53340;BME280;46212;50.258;19.062;2023-07-24T03:48:43;97843.84;;;19.95;76.82
53340;BME280;46212;50.258;19.062;2023-07-24T03:51:09;97845.16;;;19.94;77.40
53340;BME280;46212;50.258;19.062;2023-07-24T03:53:34;97841.59;;;19.93;77.35
53340;BME280;46212;50.258;19.062;2023-07-24T03:55:59;97841.03;;;19.95;77.71
53340;BME280;46212;50.258;19.062;2023-07-24T03:58:25;97848.06;;;20.01;77.41
53340;BME280;46212;50.258;19.062;2023-07-24T04:00:50;97854.22;;;20.00;77.92
53340;BME280;46212;50.258;19.062;2023-07-24T04:03:16;97854.44;;;20.15;77.82
53340;BME280;46212;50.258;19.062;2023-07-24T04:05:41;97849.16;;;20.25;76.92
53340;BME280;46212;50.258;19.062;2023-07-24T04:08:07;97848.19;;;20.22;77.56
53340;BME280;46212;50.258;19.062;2023-07-24T04:10:32;97845.06;;;20.39;76.71
53340;BME280;46212;50.258;19.062;2023-07-24T04:12:57;97852.72;;;20.38;77.19
53340;BME280;46212;50.258;19.062;2023-07-24T04:15:23;97858.84;;;20.50;76.90
53340;BME280;46212;50.258;19.062;2023-07-24T04:17:48;97866.19;;;20.53;77.63
53340;BME280;46212;50.258;19.062;2023-07-24T04:20:14;97861.06;;;20.78;77.46
53340;BME280;46212;50.258;19.062;2023-07-24T04:22:39;97854.47;;;20.88;77.00
53340;BME280;46212;50.258;19.062;2023-07-24T04:25:05;97859.19;;;20.93;77.47
53340;BME280;46212;50.258;19.062;2023-07-24T04:27:30;97858.00;;;21.02;77.08
53340;BME280;46212;50.258;19.062;2023-07-24T04:29:56;97852.22;;;21.21;77.19
53340;BME280;46212;50.258;19.062;2023-07-24T04:32:21;97851.94;;;21.32;76.92
53340;BME280;46212;50.258;19.062;2023-07-24T04:34:46;97864.31;;;21.49;76.30
53340;BME280;46212;50.258;19.062;2023-07-24T04:37:12;97851.63;;;21.56;76.11
53340;BME280;46212;50.258;19.062;2023-07-24T04:39:40;97852.38;;;21.77;75.99
53340;BME280;46212;50.258;19.062;2023-07-24T04:42:06;97848.25;;;21.99;75.18
53340;BME280;46212;50.258;19.062;2023-07-24T04:44:31;97850.28;;;21.98;75.29
53340;BME280;46212;50.258;19.062;2023-07-24T04:46:57;97858.78;;;22.06;74.96
53340;BME280;46212;50.258;19.062;2023-07-24T04:49:23;97853.16;;;22.06;75.43
53340;BME280;46212;50.258;19.062;2023-07-24T04:51:50;97848.75;;;22.18;75.11
53340;BME280;46212;50.258;19.062;2023-07-24T04:54:15;97859.28;;;22.25;75.06
53340;BME280;46212;50.258;19.062;2023-07-24T04:56:41;97849.94;;;22.30;74.49
53340;BME280;46212;50.258;19.062;2023-07-24T04:59:06;97851.69;;;22.41;74.34
53340;BME280;46212;50.258;19.062;2023-07-24T05:01:31;97851.88;;;22.43;74.22
53340;BME280;46212;50.258;19.062;2023-07-24T05:03:57;97851.53;;;22.46;74.13
53340;BME280;46212;50.258;19.062;2023-07-24T05:06:22;97855.50;;;22.51;74.19
53340;BME280;46212;50.258;19.062;2023-07-24T05:08:48;97867.00;;;22.60;73.57
53340;BME280;46212;50.258;19.062;2023-07-24T05:11:14;97856.09;;;22.64;73.04
53340;BME280;46212;50.258;19.062;2023-07-24T05:13:39;97852.25;;;22.75;72.98
53340;BME280;46212;50.258;19.062;2023-07-24T05:16:05;97848.09;;;22.68;72.70
53340;BME280;46212;50.258;19.062;2023-07-24T05:18:30;97859.63;;;22.86;72.15
53340;BME280;46212;50.258;19.062;2023-07-24T05:20:55;97853.06;;;22.91;72.00
53340;BME280;46212;50.258;19.062;2023-07-24T05:23:21;97862.25;;;22.91;71.99
53340;BME280;46212;50.258;19.062;2023-07-24T05:25:46;97857.97;;;22.98;71.76
53340;BME280;46212;50.258;19.062;2023-07-24T05:28:12;97867.16;;;22.98;71.68
53340;BME280;46212;50.258;19.062;2023-07-24T05:30:37;97873.59;;;23.14;70.93
53340;BME280;46212;50.258;19.062;2023-07-24T05:33:03;97871.00;;;23.31;70.39
53340;BME280;46212;50.258;19.062;2023-07-24T05:35:28;97866.31;;;23.26;70.03
53340;BME280;46212;50.258;19.062;2023-07-24T05:37:53;97879.22;;;23.14;70.99
53340;BME280;46212;50.258;19.062;2023-07-24T05:40:19;97876.97;;;23.12;70.45
53340;BME280;46212;50.258;19.062;2023-07-24T05:42:45;97875.13;;;23.22;69.89
53340;BME280;46212;50.258;19.062;2023-07-24T05:45:11;97865.38;;;23.23;70.20
53340;BME280;46212;50.258;19.062;2023-07-24T05:47:37;97854.09;;;23.31;69.69
53340;BME280;46212;50.258;19.062;2023-07-24T05:50:02;97859.78;;;23.54;68.45
53340;BME280;46212;50.258;19.062;2023-07-24T05:52:28;97859.81;;;23.61;67.71
53340;BME280;46212;50.258;19.062;2023-07-24T05:54:54;97855.28;;;23.66;67.75
53340;BME280;46212;50.258;19.062;2023-07-24T05:57:19;97870.88;;;23.82;67.36
53340;BME280;46212;50.258;19.062;2023-07-24T05:59:44;97870.91;;;23.74;67.41
53340;BME280;46212;50.258;19.062;2023-07-24T06:02:10;97874.09;;;23.63;67.98
53340;BME280;46212;50.258;19.062;2023-07-24T06:04:36;97874.84;;;23.79;67.20
53340;BME280;46212;50.258;19.062;2023-07-24T06:07:01;97880.28;;;23.69;67.97
53340;BME280;46212;50.258;19.062;2023-07-24T06:09:26;97878.03;;;23.75;67.02
53340;BME280;46212;50.258;19.062;2023-07-24T06:11:52;97872.94;;;23.81;67.11
53340;BME280;46212;50.258;19.062;2023-07-24T06:14:17;97868.81;;;23.83;66.93
53340;BME280;46212;50.258;19.062;2023-07-24T06:16:43;97866.75;;;23.60;67.60
53340;BME280;46212;50.258;19.062;2023-07-24T06:19:08;97880.09;;;23.83;67.21
53340;BME280;46212;50.258;19.062;2023-07-24T06:21:33;97875.78;;;23.66;67.50
53340;BME280;46212;50.258;19.062;2023-07-24T06:23:59;97882.72;;;23.88;66.13
53340;BME280;46212;50.258;19.062;2023-07-24T06:26:24;97880.09;;;23.98;65.09
53340;BME280;46212;50.258;19.062;2023-07-24T06:28:49;97871.28;;;23.94;65.59
53340;BME280;46212;50.258;19.062;2023-07-24T06:31:15;97867.13;;;23.95;64.93
53340;BME280;46212;50.258;19.062;2023-07-24T06:33:40;97864.50;;;23.97;65.17
53340;BME280;46212;50.258;19.062;2023-07-24T06:36:09;97860.53;;;24.07;64.28
53340;BME280;46212;50.258;19.062;2023-07-24T06:38:35;97858.28;;;23.98;63.40
53340;BME280;46212;50.258;19.062;2023-07-24T06:41:01;97848.53;;;24.14;64.26
53340;BME280;46212;50.258;19.062;2023-07-24T06:43:26;97854.38;;;24.16;63.62
53340;BME280;46212;50.258;19.062;2023-07-24T06:45:52;97858.66;;;24.10;63.03
53340;BME280;46212;50.258;19.062;2023-07-24T06:48:18;97853.03;;;24.10;62.66
53340;BME280;46212;50.258;19.062;2023-07-24T06:50:43;97868.09;;;24.12;60.94
53340;BME280;46212;50.258;19.062;2023-07-24T06:53:08;97865.44;;;24.07;61.60
53340;BME280;46212;50.258;19.062;2023-07-24T06:55:34;97848.72;;;24.16;61.28
53340;BME280;46212;50.258;19.062;2023-07-24T06:57:59;97847.97;;;24.16;61.53
53340;BME280;46212;50.258;19.062;2023-07-24T07:00:24;97858.13;;;24.11;60.46
53340;BME280;46212;50.258;19.062;2023-07-24T07:02:50;97849.25;;;24.30;58.78
53340;BME280;46212;50.258;19.062;2023-07-24T07:05:15;97851.84;;;24.51;58.03
53340;BME280;46212;50.258;19.062;2023-07-24T07:07:41;97852.94;;;24.55;56.97
53340;BME280;46212;50.258;19.062;2023-07-24T07:10:07;97842.00;;;24.67;57.35
53340;BME280;46212;50.258;19.062;2023-07-24T07:12:33;97830.09;;;24.76;57.16
53340;BME280;46212;50.258;19.062;2023-07-24T07:14:58;97837.44;;;24.71;56.10
53340;BME280;46212;50.258;19.062;2023-07-24T07:17:24;97831.41;;;24.82;55.67
53340;BME280;46212;50.258;19.062;2023-07-24T07:19:49;97834.69;;;25.04;55.72
53340;BME280;46212;50.258;19.062;2023-07-24T07:22:15;97834.44;;;25.17;54.16
53340;BME280;46212;50.258;19.062;2023-07-24T07:24:40;97831.00;;;25.18;53.10
53340;BME280;46212;50.258;19.062;2023-07-24T07:27:06;97834.28;;;25.07;54.48
53340;BME280;46212;50.258;19.062;2023-07-24T07:29:31;97828.56;;;25.15;53.55
53340;BME280;46212;50.258;19.062;2023-07-24T07:31:57;97846.25;;;25.23;52.48
53340;BME280;46212;50.258;19.062;2023-07-24T07:34:22;97839.88;;;25.15;52.82
53340;BME280;46212;50.258;19.062;2023-07-24T07:36:48;97850.22;;;25.20;51.82
53340;BME280;46212;50.258;19.062;2023-07-24T07:39:13;97835.19;;;25.42;51.33
53340;BME280;46212;50.258;19.062;2023-07-24T07:41:38;97828.06;;;25.66;51.21
53340;BME280;46212;50.258;19.062;2023-07-24T07:44:04;97828.31;;;26.02;50.08
53340;BME280;46212;50.258;19.062;2023-07-24T07:46:29;97830.28;;;26.34;50.90
53340;BME280;46212;50.258;19.062;2023-07-24T07:48:55;97828.44;;;26.63;51.10
53340;BME280;46212;50.258;19.062;2023-07-24T07:51:20;97821.78;;;26.85;50.81
53340;BME280;46212;50.258;19.062;2023-07-24T07:53:46;97813.69;;;26.65;50.67
53340;BME280;46212;50.258;19.062;2023-07-24T07:56:11;97806.84;;;26.68;48.79
53340;BME280;46212;50.258;19.062;2023-07-24T07:58:36;97807.78;;;26.36;46.76
53340;BME280;46212;50.258;19.062;2023-07-24T08:01:06;97810.00;;;26.03;46.77
53340;BME280;46212;50.258;19.062;2023-07-24T08:03:31;97812.09;;;26.03;47.89
53340;BME280;46212;50.258;19.062;2023-07-24T08:05:57;97817.47;;;25.91;49.22
53340;BME280;46212;50.258;19.062;2023-07-24T08:08:23;97805.34;;;25.98;49.43
53340;BME280;46212;50.258;19.062;2023-07-24T08:10:49;97794.19;;;26.00;49.75
53340;BME280;46212;50.258;19.062;2023-07-24T08:13:14;97794.03;;;25.98;48.35
53340;BME280;46212;50.258;19.062;2023-07-24T08:15:39;97798.78;;;26.13;46.68
53340;BME280;46212;50.258;19.062;2023-07-24T08:18:05;97813.31;;;26.34;47.31
53340;BME280;46212;50.258;19.062;2023-07-24T08:20:32;97817.78;;;26.37;45.30
53340;BME280;46212;50.258;19.062;2023-07-24T08:23:03;97822.44;;;26.59;45.72
53340;BME280;46212;50.258;19.062;2023-07-24T08:25:28;97806.84;;;26.68;43.80
53340;BME280;46212;50.258;19.062;2023-07-24T08:27:53;97806.91;;;26.77;43.47
53340;BME280;46212;50.258;19.062;2023-07-24T08:30:19;97811.06;;;26.93;43.37
53340;BME280;46212;50.258;19.062;2023-07-24T08:32:44;97815.00;;;26.98;42.89
53340;BME280;46212;50.258;19.062;2023-07-24T08:35:10;97796.09;;;26.83;44.13
53340;BME280;46212;50.258;19.062;2023-07-24T08:37:35;97799.59;;;26.91;43.15
53340;BME280;46212;50.258;19.062;2023-07-24T08:40:00;97782.50;;;27.09;42.40
53340;BME280;46212;50.258;19.062;2023-07-24T08:42:26;97785.28;;;27.26;42.27
53340;BME280;46212;50.258;19.062;2023-07-24T08:44:54;97789.97;;;27.67;42.05
53340;BME280;46212;50.258;19.062;2023-07-24T08:47:21;97799.09;;;27.85;41.22
53340;BME280;46212;50.258;19.062;2023-07-24T08:49:48;97792.97;;;27.88;40.87
53340;BME280;46212;50.258;19.062;2023-07-24T08:52:16;97793.38;;;27.66;39.76
53340;BME280;46212;50.258;19.062;2023-07-24T08:54:42;97780.19;;;27.51;39.47
53340;BME280;46212;50.258;19.062;2023-07-24T08:57:08;97776.22;;;27.37;39.96
53340;BME280;46212;50.258;19.062;2023-07-24T08:59:34;97773.47;;;27.20;38.86
53340;BME280;46212;50.258;19.062;2023-07-24T09:02:00;97774.06;;;27.45;38.13
53340;BME280;46212;50.258;19.062;2023-07-24T09:04:25;97777.84;;;27.30;38.46
53340;BME280;46212;50.258;19.062;2023-07-24T09:06:51;97765.41;;;27.43;39.73
53340;BME280;46212;50.258;19.062;2023-07-24T09:09:17;97780.66;;;27.57;37.76
53340;BME280;46212;50.258;19.062;2023-07-24T09:11:53;97769.06;;;27.36;38.63
53340;BME280;46212;50.258;19.062;2023-07-24T09:14:27;97785.16;;;27.24;39.26
53340;BME280;46212;50.258;19.062;2023-07-24T09:17:02;97768.34;;;27.09;39.94
53340;BME280;46212;50.258;19.062;2023-07-24T09:19:28;97771.59;;;27.32;39.81
53340;BME280;46212;50.258;19.062;2023-07-24T09:21:54;97770.88;;;27.05;38.52
53340;BME280;46212;50.258;19.062;2023-07-24T09:24:19;97792.38;;;27.08;37.49
53340;BME280;46212;50.258;19.062;2023-07-24T09:26:52;97764.66;;;27.16;37.52
53340;BME280;46212;50.258;19.062;2023-07-24T09:29:18;97771.28;;;27.28;38.38
53340;BME280;46212;50.258;19.062;2023-07-24T09:31:44;97769.91;;;27.19;38.41
53340;BME280;46212;50.258;19.062;2023-07-24T09:34:17;97752.50;;;27.32;39.00
53340;BME280;46212;50.258;19.062;2023-07-24T09:36:43;97754.91;;;27.36;39.83
53340;BME280;46212;50.258;19.062;2023-07-24T09:39:09;97760.47;;;27.43;38.75
53340;BME280;46212;50.258;19.062;2023-07-24T09:41:39;97758.59;;;27.65;39.15
53340;BME280;46212;50.258;19.062;2023-07-24T09:44:06;97755.44;;;27.61;38.54
53340;BME280;46212;50.258;19.062;2023-07-24T09:46:32;97737.41;;;27.76;38.36
53340;BME280;46212;50.258;19.062;2023-07-24T09:48:58;97747.75;;;28.00;37.49
53340;BME280;46212;50.258;19.062;2023-07-24T09:51:24;97739.84;;;27.98;38.06
53340;BME280;46212;50.258;19.062;2023-07-24T09:54:01;97742.41;;;28.23;38.42
53340;BME280;46212;50.258;19.062;2023-07-24T09:56:30;97732.09;;;28.37;37.66
53340;BME280;46212;50.258;19.062;2023-07-24T09:58:57;97731.91;;;28.45;38.16
53340;BME280;46212;50.258;19.062;2023-07-24T10:01:24;97734.47;;;28.41;37.67
53340;BME280;46212;50.258;19.062;2023-07-24T10:03:50;97732.09;;;28.28;38.18
53340;BME280;46212;50.258;19.062;2023-07-24T10:06:16;97740.91;;;28.32;38.75
53340;BME280;46212;50.258;19.062;2023-07-24T10:08:43;97739.84;;;28.46;39.10
53340;BME280;46212;50.258;19.062;2023-07-24T10:11:11;97738.34;;;28.55;37.66
53340;BME280;46212;50.258;19.062;2023-07-24T10:13:37;97730.69;;;28.77;37.15
53340;BME280;46212;50.258;19.062;2023-07-24T10:16:03;97735.81;;;28.69;36.45
53340;BME280;46212;50.258;19.062;2023-07-24T10:18:32;97742.50;;;28.73;36.43
53340;BME280;46212;50.258;19.062;2023-07-24T10:21:03;97716.25;;;28.44;36.52
53340;BME280;46212;50.258;19.062;2023-07-24T10:23:29;97714.59;;;28.41;36.64
53340;BME280;46212;50.258;19.062;2023-07-24T10:25:54;97729.69;;;28.53;36.36
53340;BME280;46212;50.258;19.062;2023-07-24T10:28:29;97721.88;;;28.63;36.67
53340;BME280;46212;50.258;19.062;2023-07-24T10:30:55;97730.25;;;28.61;36.16
53340;BME280;46212;50.258;19.062;2023-07-24T10:33:21;97712.59;;;28.82;35.74
53340;BME280;46212;50.258;19.062;2023-07-24T10:35:54;97729.00;;;28.93;36.20
53340;BME280;46212;50.258;19.062;2023-07-24T10:38:20;97725.41;;;28.92;35.88
53340;BME280;46212;50.258;19.062;2023-07-24T10:41:02;97720.53;;;28.74;36.31
53340;BME280;46212;50.258;19.062;2023-07-24T10:43:29;97718.44;;;28.74;35.76
53340;BME280;46212;50.258;19.062;2023-07-24T10:45:54;97722.06;;;28.65;36.25
53340;BME280;46212;50.258;19.062;2023-07-24T10:48:21;97734.44;;;28.79;36.07
53340;BME280;46212;50.258;19.062;2023-07-24T10:50:49;97716.66;;;28.60;36.22
53340;BME280;46212;50.258;19.062;2023-07-24T10:53:16;97713.19;;;28.80;35.75
53340;BME280;46212;50.258;19.062;2023-07-24T10:55:43;97719.34;;;28.58;36.71
53340;BME280;46212;50.258;19.062;2023-07-24T10:58:09;97711.78;;;28.22;37.19
53340;BME280;46212;50.258;19.062;2023-07-24T11:00:34;97726.84;;;27.95;38.10
53340;BME280;46212;50.258;19.062;2023-07-24T11:03:00;97716.94;;;27.58;39.27
53340;BME280;46212;50.258;19.062;2023-07-24T11:05:26;97716.63;;;27.54;39.40
53340;BME280;46212;50.258;19.062;2023-07-24T11:07:51;97710.50;;;27.58;39.26
53340;BME280;46212;50.258;19.062;2023-07-24T11:10:19;97707.09;;;27.78;39.37
53340;BME280;46212;50.258;19.062;2023-07-24T11:12:45;97723.13;;;28.22;38.40
53340;BME280;46212;50.258;19.062;2023-07-24T11:15:11;97705.31;;;28.50;37.95
53340;BME280;46212;50.258;19.062;2023-07-24T11:17:38;97694.13;;;28.23;38.64
53340;BME280;46212;50.258;19.062;2023-07-24T11:20:10;97688.53;;;28.54;38.05
53340;BME280;46212;50.258;19.062;2023-07-24T11:22:41;97696.72;;;28.88;37.14
53340;BME280;46212;50.258;19.062;2023-07-24T11:25:09;97684.72;;;29.30;36.92
53340;BME280;46212;50.258;19.062;2023-07-24T11:27:42;97694.59;;;29.60;36.79
53340;BME280;46212;50.258;19.062;2023-07-24T11:30:10;97688.63;;;29.77;36.50
53340;BME280;46212;50.258;19.062;2023-07-24T11:32:39;97677.44;;;29.91;36.78
53340;BME280;46212;50.258;19.062;2023-07-24T11:35:05;97682.63;;;29.83;36.46
53340;BME280;46212;50.258;19.062;2023-07-24T11:37:30;97679.47;;;30.00;35.69
53340;BME280;46212;50.258;19.062;2023-07-24T11:40:00;97670.41;;;29.92;34.74
53340;BME280;46212;50.258;19.062;2023-07-24T11:42:39;97667.09;;;29.95;35.65
53340;BME280;46212;50.258;19.062;2023-07-24T11:45:06;97660.44;;;30.02;35.15
53340;BME280;46212;50.258;19.062;2023-07-24T11:47:41;97643.66;;;30.18;34.79
53340;BME280;46212;50.258;19.062;2023-07-24T11:50:07;97642.16;;;30.50;33.42
53340;BME280;46212;50.258;19.062;2023-07-24T11:55:11;97631.22;;;30.35;34.06
53340;BME280;46212;50.258;19.062;2023-07-24T11:57:36;97632.91;;;30.84;32.99
53340;BME280;46212;50.258;19.062;2023-07-24T12:00:02;97624.38;;;31.19;32.92
53340;BME280;46212;50.258;19.062;2023-07-24T12:02:28;97619.78;;;31.26;31.83
53340;BME280;46212;50.258;19.062;2023-07-24T12:04:55;97613.38;;;31.62;31.20
53340;BME280;46212;50.258;19.062;2023-07-24T12:07:33;97621.38;;;31.52;31.53
53340;BME280;46212;50.258;19.062;2023-07-24T12:10:00;97613.50;;;31.64;29.64
53340;BME280;46212;50.258;19.062;2023-07-24T12:12:46;97609.94;;;31.89;30.51
53340;BME280;46212;50.258;19.062;2023-07-24T12:15:12;97610.06;;;31.42;30.79
53340;BME280;46212;50.258;19.062;2023-07-24T12:17:38;97609.28;;;32.27;30.72
53340;BME280;46212;50.258;19.062;2023-07-24T12:20:04;97593.75;;;32.69;29.51
53340;BME280;46212;50.258;19.062;2023-07-24T12:22:35;97588.28;;;33.14;28.66
53340;BME280;46212;50.258;19.062;2023-07-24T12:25:02;97577.13;;;33.06;28.05
53340;BME280;46212;50.258;19.062;2023-07-24T12:27:28;97572.91;;;33.21;27.70
53340;BME280;46212;50.258;19.062;2023-07-24T12:29:53;97561.59;;;33.09;28.29
53340;BME280;46212;50.258;19.062;2023-07-24T12:32:18;97565.69;;;32.93;27.62
53340;BME280;46212;50.258;19.062;2023-07-24T12:34:46;97569.16;;;32.64;28.45
53340;BME280;46212;50.258;19.062;2023-07-24T12:37:12;97566.22;;;32.89;28.02
53340;BME280;46212;50.258;19.062;2023-07-24T12:39:38;97559.53;;;32.98;28.74
53340;BME280;46212;50.258;19.062;2023-07-24T12:42:04;97572.47;;;32.99;28.38
53340;BME280;46212;50.258;19.062;2023-07-24T12:44:30;97555.94;;;33.25;27.21
53340;BME280;46212;50.258;19.062;2023-07-24T12:46:55;97557.59;;;33.44;27.58
53340;BME280;46212;50.258;19.062;2023-07-24T12:49:21;97555.47;;;33.58;27.45
53340;BME280;46212;50.258;19.062;2023-07-24T12:51:46;97544.63;;;33.99;26.35
53340;BME280;46212;50.258;19.062;2023-07-24T12:54:12;97541.28;;;34.19;26.72
53340;BME280;46212;50.258;19.062;2023-07-24T12:56:37;97530.25;;;34.44;26.36